Time;durP1;ratioP1;P1;durP2;ratioP2;P2;SDS_P1;SDS_P2;PMS_P1;PMS_P2;Temp;Humidity;BMP_temperature;BMP_pressure;BME280_temperature;BME280_humidity;BME280_pressure;Samples;Min_cycle;Max_cycle;Signal;HPM_P1;HPM_P2
2022/11/18 00:02:15;;;;;;;36.40;19.63;;;;;;;0.44;90.69;99593.62;3653008;80;33002;-84
2022/11/18 00:07:15;;;;;;;36.20;17.20;;;;;;;0.45;90.16;99597.14;3643940;79;98467;-85
2022/11/18 00:17:35;;;;;;;31.02;17.50;;;;;;;0.39;90.13;99583.00;3651294;80;98450;-84
2022/11/18 00:22:36;;;;;;;32.27;17.97;;;;;;;0.36;89.94;99593.15;3658586;78;32548;-85
2022/11/18 00:27:37;;;;;;;35.37;17.77;;;;;;;0.33;89.93;99585.67;3642677;80;98630;-84
2022/11/18 00:32:37;;;;;;;34.13;17.20;;;;;;;0.27;89.73;99589.70;3541581;81;31690;-83
2022/11/18 00:37:38;;;;;;;35.33;17.80;;;;;;;0.31;90.05;99596.05;3649737;78;98805;-84
2022/11/18 00:42:51;;;;;;;33.53;17.20;;;;;;;0.31;89.83;99593.89;3602235;80;31769;-84
2022/11/18 00:47:51;;;;;;;32.77;17.07;;;;;;;0.30;89.67;99598.53;3650658;79;98103;-84
2022/11/18 00:52:52;;;;;;;30.60;16.60;;;;;;;0.25;89.76;99606.03;3655901;78;32135;-85
2022/11/18 00:57:53;;;;;;;26.77;14.83;;;;;;;0.25;89.38;99608.19;3652015;79;98523;-84
2022/11/18 01:02:54;;;;;;;32.07;16.27;;;;;;;0.10;88.92;99607.41;3652856;79;31589;-84
2022/11/18 01:07:54;;;;;;;33.50;17.07;;;;;;;0.04;88.81;99607.37;3652608;78;98362;-85
2022/11/18 01:18:17;;;;;;;29.57;15.03;;;;;;;0.01;88.60;99615.34;3652381;80;29169;-85
2022/11/18 01:23:19;;;;;;;29.23;14.63;;;;;;;-0.03;88.55;99609.00;3650541;78;98581;-84
2022/11/18 01:28:20;;;;;;;29.77;15.50;;;;;;;-0.04;88.70;99612.25;3639463;80;30125;-85
2022/11/18 01:33:21;;;;;;;29.60;15.63;;;;;;;-0.06;88.85;99613.69;3618248;80;99235;-85
2022/11/18 01:38:22;;;;;;;31.90;16.07;;;;;;;-0.02;89.24;99597.86;3627560;79;31649;-84
2022/11/18 01:43:23;;;;;;;29.73;15.13;;;;;;;0.04;89.13;99604.66;3615382;80;98922;-85
2022/11/18 01:48:28;;;;;;;25.77;15.40;;;;;;;0.07;89.19;99600.51;3631312;80;32306;-83
2022/11/18 01:53:34;;;;;;;33.92;17.37;;;;;;;0.01;88.54;99601.24;3621159;79;98668;-83
2022/11/18 01:58:37;;;;;;;;;;;;;;;-0.02;88.31;99602.47;3621689;80;26009;-84
2022/11/18 02:03:39;;;;;;;30.52;14.53;;;;;;;-0.14;87.71;99596.97;3622866;79;84726;-85
2022/11/18 02:08:41;;;;;;;31.47;16.57;;;;;;;-0.15;88.83;99582.64;3626976;79;27169;-84
2022/11/18 02:13:42;;;;;;;34.13;15.15;;;;;;;-0.19;88.49;99589.04;3624062;79;98866;-85
2022/11/18 02:19:03;;;;;;;29.70;14.93;;;;;;;-0.17;88.71;99586.25;3632916;79;32140;-84
2022/11/18 02:24:27;;;;;;;31.80;15.07;;;;;;;-0.22;88.45;99578.32;3615201;79;98695;-85
2022/11/18 02:29:49;;;;;;;31.30;15.97;;;;;;;-0.34;88.47;99586.88;3613790;80;27539;-82
2022/11/18 02:35:07;;;;;;;38.33;17.67;;;;;;;-0.42;88.65;99586.92;3599933;79;98867;-84
2022/11/18 02:40:44;;;;;;;33.35;15.68;;;;;;;-0.50;88.68;99576.95;3611273;81;30771;-85
2022/11/18 02:45:50;;;;;;;36.28;16.57;;;;;;;-0.61;89.04;99570.33;3596404;81;98651;-85
2022/11/18 02:50:53;;;;;;;31.30;14.58;;;;;;;-0.70;89.16;99579.81;3606542;80;25816;-86
2022/11/18 02:55:54;;;;;;;35.57;18.33;;;;;;;-0.75;89.45;99587.29;3588914;81;98977;-85
2022/11/18 03:00:58;;;;;;;40.83;19.47;;;;;;;-0.78;89.59;99578.50;3604777;80;31568;-86
2022/11/18 03:06:08;;;;;;;34.55;17.23;;;;;;;-0.81;89.80;99576.43;3607212;80;98951;-85
2022/11/18 03:11:20;;;;;;;32.17;15.30;;;;;;;-0.91;89.85;99567.31;3601345;81;28204;-84
2022/11/18 03:16:33;;;;;;;33.58;17.20;;;;;;;-0.98;90.01;99552.17;3651637;78;99297;-84
2022/11/18 03:21:42;;;;;;;34.77;17.83;;;;;;;-1.00;90.33;99553.84;3656314;79;29129;-85
2022/11/18 03:27:00;;;;;;;32.65;16.62;;;;;;;-1.05;90.58;99552.66;3648148;79;98798;-84
2022/11/18 03:32:25;;;;;;;38.13;19.07;;;;;;;-1.13;90.79;99542.69;3685505;78;26437;-84
2022/11/18 03:37:27;;;;;;;38.40;19.03;;;;;;;-1.22;91.45;99547.30;3679162;79;99130;-84
2022/11/18 03:42:42;;;;;;;38.65;19.42;;;;;;;-1.33;91.49;99552.80;3677794;79;31643;-84
2022/11/18 03:48:04;;;;;;;42.10;20.90;;;;;;;-1.40;92.02;99557.09;3676500;78;98925;-83
2022/11/18 03:53:06;;;;;;;41.63;20.27;;;;;;;-1.46;92.32;99548.39;3640591;79;28146;-84
2022/11/18 03:58:30;;;;;;;37.03;19.67;;;;;;;-1.53;92.76;99549.40;3687379;78;98610;-83
2022/11/18 04:03:31;;;;;;;44.00;19.97;;;;;;;-1.52;92.94;99542.11;3676987;79;98723;-83
2022/11/18 04:08:37;;;;;;;41.90;19.67;;;;;;;-1.57;93.02;99536.87;3683521;79;31623;-82
2022/11/18 04:13:38;;;;;;;43.03;19.20;;;;;;;-1.66;93.80;99540.92;3671945;78;98963;-83
2022/11/18 04:18:39;;;;;;;39.20;19.25;;;;;;;-1.66;93.80;99540.92;3690722;78;31132;-83
2022/11/18 04:23:40;;;;;;;44.97;21.07;;;;;;;-1.68;93.86;99540.47;3664864;79;99017;-84
2022/11/18 04:28:40;;;;;;;42.90;19.30;;;;;;;-1.63;94.00;99540.85;3691190;78;31744;-83
2022/11/18 04:33:41;;;;;;;41.13;21.53;;;;;;;-1.64;94.05;99552.75;3674871;79;99122;-84
2022/11/18 04:38:42;;;;;;;41.93;18.23;;;;;;;-1.71;94.11;99530.30;3686598;78;30215;-84
2022/11/18 04:43:43;;;;;;;40.97;18.83;;;;;;;-1.56;94.05;99555.45;3679057;78;98962;-84
2022/11/18 04:48:44;;;;;;;36.27;17.10;;;;;;;-1.51;94.42;99566.08;3682456;79;31264;-83
2022/11/18 04:53:44;;;;;;;37.43;17.27;;;;;;;-1.49;94.36;99559.02;3673610;79;98740;-83
2022/11/18 04:58:46;;;;;;;37.40;17.73;;;;;;;-1.45;94.49;99568.85;3693405;78;34901;-84
2022/11/18 05:03:46;;;;;;;33.10;17.57;;;;;;;-1.43;94.62;99570.66;3678839;79;99095;-82
2022/11/18 05:08:48;;;;;;;35.20;17.50;;;;;;;-1.41;94.91;99563.61;3684585;79;34801;-83
2022/11/18 05:13:50;;;;;;;39.07;17.67;;;;;;;-1.36;94.92;99577.74;3679356;78;99142;-84
2022/11/18 05:18:50;;;;;;;35.97;17.10;;;;;;;-1.34;94.97;99581.45;3682627;78;35608;-83
2022/11/18 05:23:51;;;;;;;39.40;19.97;;;;;;;-1.30;94.91;99586.45;3677142;79;99286;-84
2022/11/18 05:28:52;;;;;;;46.77;19.87;;;;;;;-1.25;95.06;99583.05;3687317;78;35599;-82
2022/11/18 05:33:53;;;;;;;50.53;26.13;;;;;;;-1.22;94.95;99592.41;3681122;78;99132;-83
2022/11/18 05:38:53;;;;;;;45.53;21.23;;;;;;;-1.23;95.15;99588.10;3687404;78;34875;-84
2022/11/18 05:43:54;;;;;;;46.10;22.40;;;;;;;-1.20;95.32;99586.91;3675572;79;98676;-83
2022/11/18 05:48:56;;;;;;;52.13;24.47;;;;;;;-1.18;95.26;99597.39;3687041;79;34844;-83
2022/11/18 05:53:57;;;;;;;49.73;21.80;;;;;;;-1.15;95.46;99606.98;3556465;81;98884;-85
2022/11/18 05:58:58;;;;;;;45.10;22.53;;;;;;;-1.14;95.48;99610.49;3653428;80;28137;-84
2022/11/18 06:04:01;;;;;;;55.63;25.47;;;;;;;-1.12;95.41;99615.81;3567627;81;98646;-84
2022/11/18 06:09:05;;;;;;;45.92;22.05;;;;;;;-1.08;95.65;99615.42;3657755;78;33699;-84
2022/11/18 06:14:16;;;;;;;48.95;22.93;;;;;;;-1.03;95.82;99626.59;3541883;81;98809;-84
2022/11/18 06:19:17;;;;;;;44.88;21.45;;;;;;;-1.02;95.90;99628.98;3642362;79;34917;-84
2022/11/18 06:24:18;;;;;;;42.60;20.40;;;;;;;-1.01;95.93;99640.02;3644858;78;98951;-85
2022/11/18 06:29:20;;;;;;;39.90;19.10;;;;;;;-0.98;95.71;99647.49;3646633;79;32496;-85
2022/11/18 06:34:21;;;;;;;38.40;17.53;;;;;;;-0.94;95.96;99649.77;3615029;80;98996;-84
2022/11/18 06:39:22;;;;;;;38.13;18.63;;;;;;;-0.93;95.76;99658.09;3627887;79;33042;-82
2022/11/18 06:44:23;;;;;;;34.45;16.37;;;;;;;-0.87;96.33;99667.66;3583804;80;99025;-82
2022/11/18 06:49:25;;;;;;;30.43;14.10;;;;;;;-0.91;95.44;99670.74;3671168;78;32403;-82
2022/11/18 06:54:26;;;;;;;32.00;14.40;;;;;;;-0.93;94.41;99680.28;3665461;78;98983;-83
2022/11/18 06:59:27;;;;;;;29.77;13.97;;;;;;;-0.92;94.13;99684.56;3667957;78;32525;-83
2022/11/18 07:04:27;;;;;;;57.60;23.43;;;;;;;-0.91;93.74;99688.30;3668146;78;98981;-84
2022/11/18 07:09:28;;;;;;;37.90;17.53;;;;;;;-0.91;93.24;99692.89;3665684;78;32567;-83
2022/11/18 07:14:30;;;;;;;31.73;14.43;;;;;;;-0.91;93.05;99699.10;3652830;78;98932;-83
2022/11/18 07:19:31;;;;;;;132.70;50.75;;;;;;;-0.87;93.29;99699.25;3663061;78;32843;-83
2022/11/18 07:24:31;;;;;;;48.42;17.20;;;;;;;-0.86;93.25;99701.64;3671187;78;99065;-83
2022/11/18 07:29:32;;;;;;;56.55;19.00;;;;;;;-0.85;93.05;99705.13;3664878;78;32984;-83
2022/11/18 07:34:33;;;;;;;52.77;18.40;;;;;;;-0.90;92.50;99707.44;3662318;78;98996;-83
2022/11/18 07:39:34;;;;;;;28.27;12.13;;;;;;;-0.89;92.40;99708.25;3661085;78;25883;-83
2022/11/18 07:44:35;;;;;;;26.13;13.10;;;;;;;-0.86;92.21;99711.09;3659384;78;99019;-82
2022/11/18 07:49:35;;;;;;;25.37;12.07;;;;;;;-0.83;91.77;99718.55;3667222;78;26384;-83
2022/11/18 07:54:36;;;;;;;23.50;11.20;;;;;;;-0.82;91.49;99722.05;3654703;78;98673;-83
2022/11/18 07:59:37;;;;;;;19.50;9.20;;;;;;;-0.82;91.20;99730.93;3668216;78;26194;-83
2022/11/18 08:04:38;;;;;;;37.60;12.20;;;;;;;-0.79;91.13;99734.36;3657238;78;98706;-84
2022/11/18 08:09:39;;;;;;;21.40;11.17;;;;;;;-0.81;90.50;99736.59;3668517;78;25937;-82
2022/11/18 08:14:39;;;;;;;14.40;6.97;;;;;;;-0.78;90.76;99733.23;3664157;78;98534;-81
2022/11/18 08:19:40;;;;;;;17.17;6.93;;;;;;;-0.79;89.24;99738.95;3671005;78;33025;-83
2022/11/18 08:24:41;;;;;;;20.15;7.75;;;;;;;-0.82;88.59;99743.66;3560134;80;98777;-84
2022/11/18 08:29:42;;;;;;;47.07;13.37;;;;;;;-0.86;88.36;99746.21;3666464;78;33474;-85
2022/11/18 08:34:43;;;;;;;12.57;5.20;;;;;;;-0.84;88.50;99749.37;3628827;79;99202;-85
2022/11/18 08:39:44;;;;;;;9.63;4.50;;;;;;;-0.80;88.69;99747.63;3630906;79;33497;-83
2022/11/18 08:44:45;;;;;;;9.30;4.13;;;;;;;-0.79;88.06;99755.97;3626749;79;98239;-83
2022/11/18 08:49:46;;;;;;;147.40;43.67;;;;;;;-0.73;88.26;99753.92;3652792;78;32056;-83
2022/11/18 08:54:47;;;;;;;14.77;7.17;;;;;;;-0.71;87.49;99753.03;3655518;79;98881;-82
2022/11/18 08:59:48;;;;;;;18.03;7.57;;;;;;;-0.72;87.44;99743.34;3661958;79;29146;-83
2022/11/18 09:04:50;;;;;;;8.90;4.30;;;;;;;-0.61;87.31;99755.41;3658493;78;98314;-82
2022/11/18 09:09:51;;;;;;;16.03;5.57;;;;;;;-0.65;86.26;99761.20;3651235;79;28207;-83
2022/11/18 09:14:52;;;;;;;11.47;4.40;;;;;;;-0.62;86.43;99755.95;3649339;79;98289;-83
2022/11/18 09:19:53;;;;;;;11.43;4.90;;;;;;;-0.61;86.18;99757.54;3668666;78;31605;-81
2022/11/18 09:24:53;;;;;;;11.43;4.13;;;;;;;-0.55;86.04;99760.31;3650856;79;98713;-82
2022/11/18 09:29:54;;;;;;;9.47;4.00;;;;;;;-0.51;85.52;99763.97;3658479;79;31828;-83
2022/11/18 09:34:55;;;;;;;27.03;7.43;;;;;;;-0.47;85.28;99758.17;3664236;78;98217;-82
2022/11/18 09:39:56;;;;;;;9.23;4.27;;;;;;;-0.36;85.84;99757.50;3661324;79;32618;-82
2022/11/18 09:45:08;;;;;;;10.47;4.50;;;;;;;-0.32;84.38;99767.14;3653264;79;98549;-82
2022/11/18 09:50:16;;;;;;;11.07;3.27;;;;;;;-0.28;84.62;99764.58;3658612;79;25958;-82
2022/11/18 09:55:18;;;;;;;8.28;3.62;;;;;;;-0.12;84.88;99760.25;3659471;79;98357;-82
2022/11/18 10:00:26;;;;;;;8.10;3.50;;;;;;;-0.02;83.63;99751.21;3667088;78;30966;-83
2022/11/18 10:05:32;;;;;;;9.05;4.10;;;;;;;0.07;83.59;99751.98;3657373;79;98629;-83
2022/11/18 10:11:03;;;;;;;16.87;5.45;;;;;;;0.24;83.87;99755.97;3642429;79;26346;-82
2022/11/18 10:16:19;;;;;;;9.03;3.65;;;;;;;0.33;83.64;99757.52;3646649;78;98505;-84
2022/11/18 10:21:46;;;;;;;10.73;4.63;;;;;;;0.37;82.53;99763.88;3652256;79;26187;-83
2022/11/18 10:26:47;;;;;;;9.47;4.07;;;;;;;0.40;82.68;99768.62;3647973;79;98229;-83
2022/11/18 10:32:05;;;;;;;10.70;4.67;;;;;;;0.50;83.21;99739.05;3661699;78;34863;-83
2022/11/18 10:37:27;;;;;;;11.25;4.53;;;;;;;0.71;83.40;99754.78;3649786;79;98639;-84
2022/11/18 10:42:40;;;;;;;11.40;4.40;;;;;;;0.89;82.99;99763.02;3658012;79;26159;-84
2022/11/18 10:47:41;;;;;;;9.08;4.00;;;;;;;0.89;80.61;99768.44;3657673;78;98111;-86
2022/11/18 10:52:52;;;;;;;11.07;4.63;;;;;;;0.92;81.19;99760.44;3653165;79;35548;-83
2022/11/18 10:58:00;;;;;;;9.93;4.20;;;;;;;0.99;81.27;99763.41;3653457;79;98137;-84
2022/11/18 11:03:26;;;;;;;9.13;4.03;;;;;;;1.16;81.58;99760.56;3660021;78;26725;-84
2022/11/18 11:08:26;;;;;;;8.87;3.87;;;;;;;1.24;81.42;99761.08;3655475;79;26478;-85
2022/11/18 11:13:31;;;;;;;11.60;5.40;;;;;;;1.37;82.44;99768.12;3656276;79;98100;-85
2022/11/18 11:18:40;;;;;;;8.13;4.08;;;;;;;1.43;81.76;99763.31;3660336;78;28837;-86
2022/11/18 11:23:43;;;;;;;10.50;4.78;;;;;;;1.34;81.23;99771.52;3651559;79;97981;-85
2022/11/18 11:29:21;;;;;;;11.43;5.10;;;;;;;1.38;82.28;99759.45;3660210;78;26247;-86
2022/11/18 11:34:44;;;;;;;9.73;4.28;;;;;;;1.44;81.48;99756.76;3676898;78;98435;-86
2022/11/18 11:39:56;;;;;;;10.75;4.47;;;;;;;1.40;81.07;99757.19;3678160;78;30395;-86
2022/11/18 11:45:06;;;;;;;8.07;3.50;;;;;;;1.45;80.85;99755.63;3680581;78;98164;-86
2022/11/18 11:50:30;;;;;;;7.07;2.93;;;;;;;1.56;79.62;99754.89;3685921;78;26056;-86
2022/11/18 11:55:47;;;;;;;4.78;2.40;;;;;;;1.52;79.35;99760.75;3677640;78;98147;-86
2022/11/18 12:00:56;;;;;;;7.25;2.72;;;;;;;1.39;75.90;99760.48;3687305;78;31747;-86
2022/11/18 12:05:57;;;;;;;7.00;3.05;;;;;;;1.35;76.64;99760.09;3671645;78;98332;-86
2022/11/18 12:11:12;;;;;;;6.17;2.70;;;;;;;1.41;76.13;99764.19;3690870;78;34834;-85
2022/11/18 12:17:10;;;;;;;11.20;3.42;;;;;;;1.41;76.42;99766.90;3679087;78;98269;-86
2022/11/18 12:22:05;;;;;;;7.40;3.47;;;;;;;1.39;75.45;99771.87;3674753;78;26457;-85
2022/11/18 12:27:39;;;;;;;10.83;4.30;;;;;;;1.37;75.86;99773.55;3673430;78;97790;-86
2022/11/18 12:32:45;;;;;;;9.30;3.87;;;;;;;1.41;76.36;99775.03;3674955;78;26475;-84
2022/11/18 12:37:54;;;;;;;11.05;4.42;;;;;;;1.41;76.47;99765.55;3667514;78;98593;-86
2022/11/18 12:48:37;;;;;;;12.40;4.57;;;;;;;1.46;78.24;99776.99;3682632;78;26925;-85
2022/11/18 12:53:42;;;;;;;10.63;4.70;;;;;;;1.47;77.35;99773.16;3672861;78;98563;-86
2022/11/18 12:58:52;;;;;;;11.25;5.58;;;;;;;1.36;77.34;99777.39;3686994;78;31587;-85
2022/11/18 13:04:10;;;;;;;10.30;4.90;;;;;;;1.36;77.34;99777.39;3681360;77;98359;-87
2022/11/18 13:09:19;;;;;;;7.87;3.27;;;;;;;1.34;77.54;99774.78;3684250;78;26489;-87
2022/11/18 13:19:56;;;;;;;9.30;3.53;;;;;;;1.17;76.21;99778.44;3678847;78;27891;-85
2022/11/18 13:24:57;;;;;;;8.43;3.55;;;;;;;1.08;76.08;99783.66;3675020;78;98588;-85
2022/11/18 13:30:11;;;;;;;9.00;3.30;;;;;;;1.13;76.72;99787.53;3682013;78;34831;-85
2022/11/18 13:35:20;;;;;;;9.80;3.70;;;;;;;1.16;76.36;99790.38;3650242;79;97941;-85
2022/11/18 13:40:31;;;;;;;9.37;3.30;;;;;;;1.16;75.87;99800.44;3650053;78;26244;-84
2022/11/18 13:45:33;;;;;;;10.27;3.73;;;;;;;1.18;76.62;99801.70;3632040;79;97977;-85
2022/11/18 13:50:42;;;;;;;8.17;3.63;;;;;;;1.21;76.82;99815.16;3664992;79;27881;-85
2022/11/18 13:56:20;;;;;;;11.55;4.65;;;;;;;1.19;77.34;99811.41;3649455;78;98022;-82
2022/11/18 14:01:25;;;;;;;14.70;7.33;;;;;;;1.19;77.62;99825.51;3679850;79;28868;-85
2022/11/18 14:06:30;;;;;;;15.80;5.85;;;;;;;1.17;77.66;99825.86;3657832;78;98531;-85
2022/11/18 14:11:38;;;;;;;16.25;5.85;;;;;;;1.07;77.46;99827.59;3656089;79;26105;-86
2022/11/18 14:16:41;;;;;;;12.97;6.27;;;;;;;1.02;77.35;99822.91;3649143;79;98391;-85
2022/11/18 14:21:44;;;;;;;8.00;3.30;;;;;;;0.94;77.58;99831.33;3651246;78;46108;-86
2022/11/18 14:26:45;;;;;;;8.60;3.90;;;;;;;0.90;77.84;99829.06;3653756;79;98350;-86
2022/11/18 14:32:12;;;;;;;9.13;3.70;;;;;;;0.85;77.88;99832.50;3655466;78;34981;-87
2022/11/18 14:37:13;;;;;;;15.68;6.87;;;;;;;0.78;78.01;99838.42;3608908;78;98084;-87
2022/11/18 14:42:15;;;;;;;20.87;9.03;;;;;;;0.70;78.55;99836.56;3645848;78;26371;-87
2022/11/18 14:47:29;;;;;;;22.87;9.53;;;;;;;0.64;78.73;99843.28;3648810;79;97957;-85
2022/11/18 14:52:37;;;;;;;12.07;5.17;;;;;;;0.56;78.84;99850.09;3665835;78;26284;-85
2022/11/18 14:57:38;;;;;;;25.53;12.10;;;;;;;0.38;78.76;99851.25;3648256;79;98419;-85
2022/11/18 15:02:39;;;;;;;18.30;7.97;;;;;;;0.26;78.97;99854.66;3657171;79;34873;-84
2022/11/18 15:07:40;;;;;;;19.53;7.33;;;;;;;0.11;78.41;99855.73;3647989;78;98356;-84
2022/11/18 15:12:40;;;;;;;19.03;6.57;;;;;;;0.00;78.82;99866.08;3656291;79;34877;-85
2022/11/18 15:17:41;;;;;;;28.43;11.87;;;;;;;-0.10;79.32;99861.00;3650723;79;98291;-83
2022/11/18 15:22:42;;;;;;;34.47;11.00;;;;;;;-0.20;79.29;99872.71;3658606;78;35280;-84
2022/11/18 15:27:43;;;;;;;50.83;14.57;;;;;;;-0.34;79.58;99884.23;3650553;79;98361;-85
2022/11/18 15:32:44;;;;;;;26.25;11.38;;;;;;;-0.43;79.73;99886.70;3668248;78;36087;-85
2022/11/18 15:37:45;;;;;;;24.98;9.53;;;;;;;-0.52;80.19;99891.30;3679022;78;98865;-84
2022/11/18 15:42:45;;;;;;;24.67;11.47;;;;;;;-0.60;80.52;99897.50;3675621;78;32500;-83
2022/11/18 15:47:46;;;;;;;21.33;7.70;;;;;;;-0.71;81.11;99907.02;3675598;78;98633;-84
2022/11/18 15:52:47;;;;;;;10.10;4.40;;;;;;;-0.79;81.47;99901.03;3680671;78;32586;-83
2022/11/18 15:57:48;;;;;;;10.50;4.00;;;;;;;-0.85;81.84;99908.50;3674382;78;98564;-84
2022/11/18 16:02:54;;;;;;;11.65;4.55;;;;;;;-0.90;82.28;99914.59;3690645;78;32709;-83
2022/11/18 16:07:55;;;;;;;11.83;4.63;;;;;;;-0.93;82.31;99914.66;3665962;78;99464;-84
2022/11/18 16:12:56;;;;;;;11.73;4.70;;;;;;;-0.94;82.76;99919.05;3691385;78;32720;-84
2022/11/18 16:17:57;;;;;;;9.90;4.10;;;;;;;-0.97;82.86;99927.22;3664502;78;98644;-83
2022/11/18 16:22:58;;;;;;;8.27;3.20;;;;;;;-0.98;83.00;99928.34;3673413;78;32420;-83
2022/11/18 16:28:00;;;;;;;10.20;3.73;;;;;;;-1.00;83.17;99931.11;3681585;78;98567;-84
2022/11/18 16:33:01;;;;;;;10.40;5.20;;;;;;;-1.00;83.32;99946.73;3684936;78;32428;-83
2022/11/18 16:38:02;;;;;;;8.37;3.63;;;;;;;-1.02;83.37;99946.27;3684965;78;98253;-84
2022/11/18 16:43:03;;;;;;;7.33;3.60;;;;;;;-1.04;83.48;99955.21;3686485;78;33000;-84
2022/11/18 16:48:04;;;;;;;9.93;3.53;;;;;;;-1.05;83.71;99968.48;3686704;78;97899;-86
2022/11/18 16:53:04;;;;;;;10.33;3.77;;;;;;;-1.06;83.73;99970.13;3677564;78;32424;-85
2022/11/18 16:58:05;;;;;;;25.40;11.33;;;;;;;-1.08;83.99;99965.61;3676417;78;98407;-86
2022/11/18 17:03:06;;;;;;;22.58;12.20;;;;;;;-1.09;84.48;99978.87;3686122;78;32488;-86
2022/11/18 17:08:07;;;;;;;13.07;6.97;;;;;;;-1.09;84.48;99978.87;3680052;78;98600;-85
2022/11/18 17:13:07;;;;;;;10.17;5.37;;;;;;;-1.08;84.58;99983.97;3682624;78;26504;-86
2022/11/18 17:18:08;;;;;;;10.23;4.47;;;;;;;-1.05;84.72;99979.28;3682754;78;98086;-86
2022/11/18 17:23:09;;;;;;;11.30;4.70;;;;;;;-1.02;84.93;99976.52;3690218;78;26571;-85
2022/11/18 17:28:10;;;;;;;10.43;5.53;;;;;;;-0.98;85.05;99989.64;3689710;78;26883;-86
2022/11/18 17:33:10;;;;;;;13.87;7.07;;;;;;;-0.94;85.19;99991.97;3680086;78;104334;-85
2022/11/18 17:38:11;;;;;;;17.23;8.53;;;;;;;-0.91;85.39;99990.79;3662128;79;25887;-85
2022/11/18 17:43:14;;;;;;;16.30;7.93;;;;;;;-0.87;85.42;99989.06;3661596;79;98745;-85
2022/11/18 17:48:15;;;;;;;16.73;8.30;;;;;;;-0.81;85.46;99999.16;3660399;78;33014;-86
2022/11/18 17:53:17;;;;;;;12.97;5.90;;;;;;;-0.76;85.58;99996.32;3658137;79;98399;-86
2022/11/18 17:58:18;;;;;;;15.93;8.27;;;;;;;-0.72;85.58;99995.95;3666586;78;32879;-85
2022/11/18 18:03:18;;;;;;;16.60;7.20;;;;;;;-0.69;85.72;100003.41;3647880;79;98593;-86
2022/11/18 18:08:19;;;;;;;12.67;5.80;;;;;;;-0.64;85.76;99996.52;3658247;79;34197;-85
2022/11/18 18:18:39;;;;;;;13.90;6.13;;;;;;;-0.54;85.96;100020.55;3671601;79;25937;-85
2022/11/18 18:23:40;;;;;;;13.40;5.90;;;;;;;-0.52;85.89;100014.27;3648913;79;98947;-85
2022/11/18 18:28:41;;;;;;;15.03;7.57;;;;;;;-0.49;85.87;100019.06;3673491;78;32852;-85
2022/11/18 18:33:42;;;;;;;14.10;6.62;;;;;;;-0.49;85.62;100023.11;3654152;79;98570;-85
2022/11/18 18:38:46;;;;;;;14.23;5.60;;;;;;;-0.48;85.70;100029.56;3684058;78;33026;-85
2022/11/18 18:43:49;;;;;;;12.60;6.78;;;;;;;-0.45;85.90;100026.22;3679207;78;98757;-86
2022/11/18 18:48:50;;;;;;;13.10;5.73;;;;;;;-0.42;85.93;100026.38;3664533;78;26305;-85
2022/11/18 18:53:52;;;;;;;13.35;6.12;;;;;;;-0.39;85.98;100031.71;3675900;78;98747;-86
2022/11/18 18:58:54;;;;;;;12.13;5.67;;;;;;;-0.39;85.97;100029.02;3682973;78;25930;-86
2022/11/18 19:03:58;;;;;;;14.90;7.10;;;;;;;-0.40;85.92;100032.83;3679647;78;98569;-86
2022/11/18 19:09:02;;;;;;;15.33;6.97;;;;;;;-0.41;85.99;100039.35;3690612;78;25844;-85
2022/11/18 19:14:06;;;;;;;19.27;8.40;;;;;;;-0.41;86.10;100043.41;3678161;78;98384;-85
2022/11/18 19:19:15;;;;;;;16.33;7.33;;;;;;;-0.42;85.91;100051.28;3684791;78;26482;-86
2022/11/18 19:24:16;;;;;;;14.35;6.53;;;;;;;-0.40;86.41;100062.56;3676846;78;98396;-86
2022/11/18 19:29:17;;;;;;;18.07;8.00;;;;;;;-0.44;86.18;100050.00;3685107;78;33323;-86
2022/11/18 19:34:18;;;;;;;17.35;7.25;;;;;;;-0.47;86.27;100058.72;3676383;78;98528;-86
2022/11/18 19:39:18;;;;;;;21.70;9.43;;;;;;;-0.46;86.58;100065.17;3662550;78;32864;-86
2022/11/18 19:44:19;;;;;;;18.90;7.97;;;;;;;-0.48;86.18;100059.84;3654869;79;98629;-86
2022/11/18 19:49:21;;;;;;;19.30;8.27;;;;;;;-0.46;86.65;100066.52;3660240;79;32920;-86
2022/11/18 19:54:22;;;;;;;20.72;9.70;;;;;;;-0.47;86.27;100074.94;3648195;78;98481;-84
2022/11/18 19:59:23;;;;;;;25.67;10.50;;;;;;;-0.47;86.34;100083.05;3655990;79;32880;-87
2022/11/18 20:04:23;;;;;;;23.40;8.53;;;;;;;-0.50;86.44;100086.39;3648137;79;98705;-85
2022/11/18 20:09:24;;;;;;;26.03;11.40;;;;;;;-0.48;86.47;100092.27;3665127;78;31301;-86
2022/11/18 20:14:25;;;;;;;19.93;8.77;;;;;;;-0.44;86.74;100089.19;3654250;79;98650;-85
2022/11/18 20:19:26;;;;;;;27.23;11.83;;;;;;;-0.43;86.69;100096.19;3664200;78;32252;-86
2022/11/18 20:24:26;;;;;;;21.07;8.63;;;;;;;-0.41;86.81;100093.41;3656285;79;98774;-85
2022/11/18 20:29:27;;;;;;;20.90;8.80;;;;;;;-0.39;86.62;100097.16;3661926;79;26248;-87
2022/11/18 20:34:28;;;;;;;16.13;7.20;;;;;;;-0.41;86.93;100096.12;3660554;78;98618;-86
2022/11/18 20:39:29;;;;;;;19.60;8.27;;;;;;;-0.39;87.17;100095.81;3686964;78;31161;-87
2022/11/18 20:44:29;;;;;;;18.37;7.63;;;;;;;-0.39;87.22;100100.65;3679571;78;98514;-86
2022/11/18 20:49:30;;;;;;;18.07;8.37;;;;;;;-0.37;87.33;100105.98;3682703;78;27885;-86
2022/11/18 20:54:32;;;;;;;16.60;8.17;;;;;;;-0.36;87.09;100114.33;3685010;78;98660;-87
2022/11/18 20:59:33;;;;;;;18.50;8.70;;;;;;;-0.37;87.38;100111.16;3679674;78;26244;-86
2022/11/18 21:04:34;;;;;;;15.97;7.67;;;;;;;-0.39;87.33;100117.44;3681329;78;98510;-86
2022/11/18 21:09:34;;;;;;;21.97;10.57;;;;;;;-0.41;87.35;100120.45;3685735;78;34773;-87
2022/11/18 21:14:35;;;;;;;18.80;8.73;;;;;;;-0.40;87.04;100118.55;3691013;78;98604;-87
2022/11/18 21:19:36;;;;;;;16.67;8.03;;;;;;;-0.41;87.52;100125.85;3683948;78;34855;-87
2022/11/18 21:24:37;;;;;;;19.30;9.40;;;;;;;-0.39;87.61;100130.95;3655704;78;98512;-86
2022/11/18 21:29:39;;;;;;;16.18;7.78;;;;;;;-0.37;87.62;100139.54;3684309;78;34830;-87
2022/11/18 21:34:40;;;;;;;17.55;8.60;;;;;;;-0.38;87.62;100133.36;3679421;78;98520;-87
2022/11/18 21:39:41;;;;;;;15.93;7.97;;;;;;;-0.39;87.55;100139.06;3677260;78;32500;-87
2022/11/18 21:44:42;;;;;;;16.87;7.97;;;;;;;-0.42;87.47;100134.27;3672565;78;98482;-86
2022/11/18 21:49:42;;;;;;;15.10;7.80;;;;;;;-0.46;87.42;100143.56;3676747;78;32447;-86
2022/11/18 21:54:43;;;;;;;16.80;7.50;;;;;;;-0.53;87.35;100148.63;3672915;78;98769;-87
2022/11/18 21:59:44;;;;;;;17.60;7.13;;;;;;;-0.59;87.26;100148.52;3674281;78;33085;-87
2022/11/18 22:04:54;;;;;;;17.63;6.50;;;;;;;-0.67;87.24;100153.30;3673048;78;98698;-86
2022/11/18 22:09:57;;;;;;;16.48;6.95;;;;;;;-0.76;87.26;100153.82;3675784;78;31009;-86
2022/11/18 22:14:58;;;;;;;16.17;7.17;;;;;;;-0.87;87.17;100155.19;3672363;78;99051;-87
2022/11/18 22:19:58;;;;;;;16.00;6.77;;;;;;;-0.99;87.32;100156.27;3678294;78;32381;-86
2022/11/18 22:25:15;;;;;;;17.43;7.43;;;;;;;-1.09;87.30;100154.38;3666034;78;98673;-86
2022/11/18 22:30:16;;;;;;;;;;;;;;;-1.20;87.42;100165.95;3657747;78;26260;-87
2022/11/18 22:35:16;;;;;;;16.73;7.37;;;;;;;-1.31;87.42;100167.30;3670166;78;84725;-87
2022/11/18 22:40:17;;;;;;;17.17;7.57;;;;;;;-1.42;87.34;100167.28;3659833;78;32918;-86
2022/11/18 22:45:18;;;;;;;17.82;7.37;;;;;;;-1.58;87.31;100157.92;3646600;79;98621;-87
2022/11/18 22:50:42;;;;;;;19.27;9.27;;;;;;;-1.68;87.55;100156.02;3657406;79;32590;-89
2022/11/18 22:55:43;;;;;;;21.73;9.70;;;;;;;-1.77;87.82;100161.33;3610654;79;99168;-90
2022/11/18 23:00:44;;;;;;;22.33;9.93;;;;;;;-1.85;87.84;100163.39;3655203;79;32465;-90
2022/11/18 23:05:45;;;;;;;26.20;10.67;;;;;;;-1.96;88.05;100174.14;3658590;78;99067;-89
2022/11/18 23:10:46;;;;;;;20.07;9.50;;;;;;;-2.06;88.08;100167.60;3661095;79;32407;-90
2022/11/18 23:15:47;;;;;;;21.37;10.13;;;;;;;-2.19;88.10;100167.03;3652931;78;98695;-90
2022/11/18 23:20:48;;;;;;;24.13;10.50;;;;;;;-2.30;88.32;100171.59;3659136;78;32478;-89
2022/11/18 23:25:48;;;;;;;20.43;9.37;;;;;;;-2.39;88.55;100172.02;3648367;78;98891;-89
2022/11/18 23:30:49;;;;;;;18.67;7.97;;;;;;;-2.50;88.63;100174.12;3660218;79;33056;-89
2022/11/18 23:35:53;;;;;;;18.87;9.50;;;;;;;-2.60;88.85;100171.59;3646896;78;98649;-89
2022/11/18 23:40:55;;;;;;;20.70;8.90;;;;;;;-2.65;88.83;100171.69;3656240;78;32714;-90
2022/11/18 23:45:57;;;;;;;19.10;8.15;;;;;;;-2.69;89.07;100179.31;3643099;79;98669;-89
2022/11/18 23:51:02;;;;;;;18.50;8.67;;;;;;;-2.74;89.13;100174.80;3654865;78;27313;-89
2022/11/18 23:56:14;;;;;;;18.60;9.20;;;;;;;-2.77;89.25;100172.70;3647249;79;98947;-89
